createdAt,value
2019-02-06T00:01:32.905Z,45.57
2019-02-06T00:04:20.862Z,46.33
2019-02-06T00:07:08.517Z,46.63
2019-02-06T00:09:56.522Z,51.90
2019-02-06T00:12:44.678Z,55.47
2019-02-06T00:15:32.761Z,54.83
2019-02-06T00:18:20.615Z,44.67
2019-02-06T00:21:08.432Z,47.23
2019-02-06T00:23:56.504Z,47.87
2019-02-06T00:26:44.029Z,49.30
2019-02-06T00:29:31.990Z,47.27
2019-02-06T00:32:20.260Z,51.13
2019-02-06T00:35:08.424Z,49.57
2019-02-06T00:37:56.323Z,56.33
2019-02-06T00:40:44.313Z,52.27
2019-02-06T00:43:32.221Z,51.33
2019-02-06T00:46:20.330Z,49.27
2019-02-06T00:49:07.917Z,52.40
2019-02-06T00:51:55.819Z,51.57
2019-02-06T00:54:43.848Z,48.70
2019-02-06T00:57:32.262Z,51.63
2019-02-06T01:00:22.456Z,48.00
2019-02-06T01:03:10.128Z,46.27
2019-02-06T01:05:57.851Z,53.67
2019-02-06T01:08:46.064Z,44.43
2019-02-06T01:11:33.729Z,47.53
2019-02-06T01:14:22.052Z,46.93
2019-02-06T01:17:10.322Z,48.77
2019-02-06T01:19:58.060Z,50.70
2019-02-06T01:22:46.238Z,43.90
2019-02-06T01:25:34.081Z,46.33
2019-02-06T01:28:21.981Z,48.43
2019-02-06T01:31:10.744Z,48.40
2019-02-06T01:33:59.222Z,50.57
2019-02-06T01:36:47.947Z,50.10
2019-02-06T01:39:35.557Z,51.97
2019-02-06T01:42:23.512Z,49.77
2019-02-06T01:45:14.192Z,50.17
2019-02-06T01:48:02.102Z,51.10
2019-02-06T01:50:49.970Z,56.13
2019-02-06T01:53:37.828Z,46.80
2019-02-06T01:56:25.683Z,43.97
2019-02-06T01:59:13.620Z,51.63
2019-02-06T02:02:01.491Z,52.23
2019-02-06T02:04:49.270Z,57.47
2019-02-06T02:07:37.333Z,50.77
2019-02-06T02:10:24.953Z,46.37
2019-02-06T02:13:12.964Z,47.47
2019-02-06T02:16:00.766Z,53.97
2019-02-06T02:18:48.989Z,49.43
2019-02-06T02:21:36.668Z,52.27
2019-02-06T02:24:24.562Z,48.10
2019-02-06T02:27:12.221Z,51.57
2019-02-06T02:30:00.099Z,47.13
2019-02-06T02:32:47.824Z,48.90
2019-02-06T02:35:35.791Z,57.47
2019-02-06T02:38:23.526Z,50.33
2019-02-06T02:41:12.106Z,50.20
2019-02-06T02:44:00.105Z,48.03
2019-02-06T02:46:48.007Z,51.00
2019-02-06T02:49:35.595Z,48.40
2019-02-06T02:52:23.604Z,57.83
2019-02-06T02:55:13.098Z,69.83
2019-02-06T02:58:00.875Z,60.73
2019-02-06T03:00:56.781Z,66.93
2019-02-06T03:03:49.307Z,60.90
2019-02-06T03:06:36.966Z,63.17
2019-02-06T03:09:24.551Z,56.10
2019-02-06T03:12:12.778Z,60.17
2019-02-06T03:15:00.640Z,53.30
2019-02-06T03:17:48.230Z,55.00
2019-02-06T03:20:36.033Z,52.80
2019-02-06T03:23:23.981Z,53.47
2019-02-06T03:26:11.618Z,56.57
2019-02-06T03:28:59.542Z,53.07
2019-02-06T03:31:47.544Z,46.03
2019-02-06T03:34:35.529Z,48.53
2019-02-06T03:37:23.452Z,46.90
2019-02-06T03:40:14.346Z,45.43
2019-02-06T03:43:02.139Z,48.67
2019-02-06T03:45:50.230Z,42.03
2019-02-06T03:48:37.975Z,44.53
2019-02-06T03:51:26.148Z,44.53
2019-02-06T03:54:14.043Z,44.10
2019-02-06T03:57:01.853Z,40.10
2019-02-06T03:59:49.636Z,43.63
2019-02-06T04:02:37.512Z,44.93
2019-02-06T04:05:25.371Z,47.10
2019-02-06T04:08:13.015Z,51.17
2019-02-06T04:11:01.366Z,48.47
2019-02-06T04:13:49.289Z,45.10
2019-02-06T04:16:37.272Z,42.20
2019-02-06T04:19:25.152Z,39.50
2019-02-06T04:22:13.199Z,44.57
2019-02-06T04:25:01.132Z,40.90
2019-02-06T04:27:48.991Z,44.60
2019-02-06T04:30:36.892Z,48.47
2019-02-06T04:33:24.935Z,46.07
2019-02-06T04:36:13.145Z,44.10
2019-02-06T04:39:00.994Z,43.83
2019-02-06T04:41:48.909Z,43.93
2019-02-06T04:44:36.865Z,46.87
2019-02-06T04:47:24.617Z,45.37
2019-02-06T04:50:15.236Z,52.30
2019-02-06T04:53:03.002Z,48.27
2019-02-06T04:55:51.076Z,47.30
2019-02-06T04:58:38.734Z,44.00
2019-02-06T05:01:26.661Z,52.77
2019-02-06T05:04:14.390Z,46.57
2019-02-06T05:07:02.467Z,53.67
2019-02-06T05:09:50.443Z,47.30
2019-02-06T05:12:38.118Z,46.03
2019-02-06T05:15:26.464Z,50.47
2019-02-06T05:18:14.316Z,42.80
2019-02-06T05:21:02.122Z,43.30
2019-02-06T05:23:49.804Z,43.40
2019-02-06T05:26:37.490Z,43.33
2019-02-06T05:29:25.457Z,41.63
2019-02-06T05:32:13.184Z,42.20
2019-02-06T05:35:01.233Z,38.87
2019-02-06T05:37:48.962Z,46.60
2019-02-06T05:40:36.817Z,45.73
2019-02-06T05:43:24.772Z,38.97
2019-02-06T05:46:12.697Z,38.33
2019-02-06T05:49:00.432Z,35.80
2019-02-06T05:51:48.478Z,35.47
2019-02-06T05:54:36.464Z,35.90
2019-02-06T05:57:24.504Z,37.47
2019-02-06T06:00:25.489Z,37.90
2019-02-06T06:03:13.427Z,38.03
2019-02-06T06:06:01.307Z,38.57
2019-02-06T06:08:49.329Z,40.40
2019-02-06T06:11:37.409Z,37.07
2019-02-06T06:14:25.389Z,39.07
2019-02-06T06:17:13.275Z,43.93
2019-02-06T06:20:01.460Z,37.43
2019-02-06T06:22:49.507Z,34.40
2019-02-06T06:25:37.148Z,36.63
2019-02-06T06:28:25.039Z,36.10
2019-02-06T06:31:12.980Z,42.37
2019-02-06T06:34:01.074Z,40.50
2019-02-06T06:36:48.555Z,37.87
2019-02-06T06:39:36.905Z,42.03
2019-02-06T06:42:24.786Z,42.67
2019-02-06T06:45:16.048Z,39.63
2019-02-06T06:48:04.536Z,39.10
2019-02-06T06:50:52.168Z,43.47
2019-02-06T06:53:39.784Z,39.03
2019-02-06T06:56:28.263Z,40.10
2019-02-06T06:59:16.618Z,38.47
2019-02-06T07:02:04.684Z,32.97
2019-02-06T07:04:52.624Z,40.17
2019-02-06T07:07:40.570Z,37.77
2019-02-06T07:10:28.300Z,43.30
2019-02-06T07:13:15.937Z,43.00
2019-02-06T07:16:05.275Z,42.63
2019-02-06T07:18:52.917Z,41.67
2019-02-06T07:21:40.932Z,43.60
2019-02-06T07:24:28.938Z,45.13
2019-02-06T07:27:16.892Z,49.60
2019-02-06T07:30:10.648Z,46.03
2019-02-06T07:32:58.412Z,43.30
2019-02-06T07:35:46.226Z,43.33
2019-02-06T07:38:34.275Z,38.13
2019-02-06T07:41:21.954Z,43.43
2019-02-06T07:44:09.843Z,46.93
2019-02-06T07:46:57.803Z,47.80
2019-02-06T07:49:46.079Z,47.97
2019-02-06T07:52:33.710Z,44.40
2019-02-06T07:55:21.534Z,45.17
2019-02-06T07:58:09.566Z,48.17
2019-02-06T08:00:57.245Z,45.03
2019-02-06T08:03:45.073Z,47.70
2019-02-06T08:06:32.799Z,49.17
2019-02-06T08:09:20.896Z,45.80
2019-02-06T08:12:09.032Z,43.03
2019-02-06T08:14:56.953Z,40.73
2019-02-06T08:17:44.868Z,43.80
2019-02-06T08:20:32.610Z,45.07
2019-02-06T08:23:20.309Z,43.73
2019-02-06T08:26:08.007Z,40.60
2019-02-06T08:28:56.417Z,38.13
2019-02-06T08:31:44.272Z,41.43
2019-02-06T08:34:32.176Z,44.83
2019-02-06T08:37:19.963Z,41.10
2019-02-06T08:40:10.281Z,43.37
2019-02-06T08:42:58.370Z,43.90
2019-02-06T08:45:46.196Z,47.13
2019-02-06T08:48:33.831Z,50.83
2019-02-06T08:51:21.457Z,44.97
2019-02-06T08:54:09.343Z,41.73
2019-02-06T08:56:57.355Z,39.07
2019-02-06T08:59:45.340Z,42.60
2019-02-06T09:02:33.277Z,43.97
2019-02-06T09:05:21.276Z,45.80
2019-02-06T09:08:09.760Z,44.07
2019-02-06T09:10:57.607Z,47.13
2019-02-06T09:13:45.619Z,45.83
2019-02-06T09:16:33.773Z,49.23
2019-02-06T09:19:21.726Z,43.30
2019-02-06T09:22:09.482Z,40.77
2019-02-06T09:24:57.384Z,42.53
2019-02-06T09:27:45.107Z,43.33
2019-02-06T09:30:35.205Z,46.93
2019-02-06T09:33:23.444Z,47.53
2019-02-06T09:36:11.408Z,45.83
2019-02-06T09:39:10.946Z,39.67
2019-02-06T09:41:48.460Z,42.60
2019-02-06T09:44:36.619Z,41.07
2019-02-06T09:47:24.394Z,38.83
2019-02-06T09:50:21.384Z,40.50
2019-02-06T09:53:09.117Z,42.17
2019-02-06T09:55:56.965Z,41.80
2019-02-06T09:58:45.042Z,37.67
2019-02-06T10:01:32.958Z,37.43
2019-02-06T10:04:20.557Z,32.70
2019-02-06T10:07:08.624Z,33.47
2019-02-06T10:09:57.990Z,39.27
2019-02-06T10:12:46.367Z,39.27
2019-02-06T10:15:36.281Z,40.30
2019-02-06T10:18:24.344Z,38.47
2019-02-06T10:21:12.495Z,34.77
2019-02-06T10:24:00.552Z,37.30
2019-02-06T10:26:48.500Z,36.93
2019-02-06T10:29:36.224Z,33.60
2019-02-06T10:32:24.134Z,33.77
2019-02-06T10:35:12.207Z,37.83
2019-02-06T10:38:00.113Z,39.07
2019-02-06T10:40:47.965Z,35.57
2019-02-06T10:43:36.057Z,37.70
2019-02-06T10:46:24.177Z,38.27
2019-02-06T10:49:11.947Z,36.27
2019-02-06T10:51:59.860Z,40.43
2019-02-06T10:54:47.764Z,34.67
2019-02-06T10:57:35.662Z,36.87
2019-02-06T11:00:29.734Z,34.37
2019-02-06T11:03:16.755Z,36.50
2019-02-06T11:06:04.777Z,35.40
2019-02-06T11:08:52.692Z,36.80
2019-02-06T11:11:40.673Z,34.33
2019-02-06T11:14:28.480Z,35.30
2019-02-06T11:17:16.310Z,34.37
2019-02-06T11:20:07.203Z,32.60
2019-02-06T11:22:55.115Z,32.00
2019-02-06T11:25:42.886Z,32.60
2019-02-06T11:28:31.524Z,37.23
2019-02-06T11:31:19.364Z,32.67
2019-02-06T11:34:07.215Z,36.50
2019-02-06T11:36:54.890Z,32.67
2019-02-06T11:39:43.068Z,36.60
2019-02-06T11:42:30.948Z,32.87
2019-02-06T11:45:24.537Z,35.57
2019-02-06T11:48:12.133Z,33.67
2019-02-06T11:51:00.068Z,35.10
2019-02-06T11:53:48.640Z,38.13
2019-02-06T11:56:36.728Z,31.37
2019-02-06T11:59:24.651Z,35.80
2019-02-06T12:02:13.172Z,32.53
2019-02-06T12:05:00.864Z,34.47
2019-02-06T12:07:49.008Z,34.97
2019-02-06T12:10:36.845Z,32.20
2019-02-06T12:13:25.097Z,31.70
2019-02-06T12:16:13.006Z,29.57
2019-02-06T12:19:00.827Z,32.13
2019-02-06T12:21:48.651Z,33.07
2019-02-06T12:24:36.337Z,32.77
2019-02-06T12:27:24.255Z,32.97
2019-02-06T12:30:18.164Z,29.20
2019-02-06T12:33:06.361Z,36.27
2019-02-06T12:35:54.189Z,31.77
2019-02-06T12:38:52.770Z,31.10
2019-02-06T12:41:31.696Z,28.00
2019-02-06T12:44:19.443Z,27.63
2019-02-06T12:47:07.069Z,27.53
2019-02-06T12:49:54.897Z,27.80
2019-02-06T12:52:42.968Z,25.47
2019-02-06T12:55:36.436Z,30.47
2019-02-06T12:58:26.115Z,27.67
2019-02-06T13:01:14.450Z,28.33
2019-02-06T13:04:02.341Z,30.57
2019-02-06T13:06:50.164Z,26.70
2019-02-06T13:09:38.066Z,29.87
2019-02-06T13:12:27.362Z,27.87
2019-02-06T13:15:17.206Z,28.47
2019-02-06T13:18:05.338Z,31.30
2019-02-06T13:20:53.245Z,26.23
2019-02-06T13:23:41.162Z,27.73
2019-02-06T13:26:29.304Z,29.27
2019-02-06T13:29:16.907Z,28.47
2019-02-06T13:32:04.996Z,29.30
2019-02-06T13:34:53.003Z,29.43
2019-02-06T13:37:40.780Z,32.70
2019-02-06T13:40:29.283Z,34.87
2019-02-06T13:43:16.939Z,26.13
2019-02-06T13:46:05.216Z,25.77
2019-02-06T13:48:53.276Z,27.13
2019-02-06T13:51:41.151Z,28.20
2019-02-06T13:54:28.757Z,29.43
2019-02-06T13:57:17.144Z,26.73
2019-02-06T14:00:11.226Z,28.97
2019-02-06T14:02:59.547Z,27.37
2019-02-06T14:05:47.477Z,26.80
2019-02-06T14:08:35.048Z,26.40
2019-02-06T14:11:22.736Z,27.43
2019-02-06T14:14:10.494Z,23.60
2019-02-06T14:16:58.269Z,25.80
2019-02-06T14:19:45.876Z,25.67
2019-02-06T14:22:33.861Z,25.80
2019-02-06T14:25:28.016Z,32.90
2019-02-06T14:28:51.673Z,25.60
2019-02-06T14:31:51.784Z,35.73
2019-02-06T14:35:03.708Z,45.80
2019-02-06T14:38:12.634Z,37.80
2019-02-06T14:41:08.531Z,26.90
2019-02-06T14:44:07.534Z,26.70
2019-02-06T14:47:10.384Z,26.77
2019-02-06T14:50:04.336Z,25.97
2019-02-06T14:52:55.160Z,29.70
2019-02-06T14:56:00.942Z,24.40
2019-02-06T14:59:11.448Z,24.80
2019-02-06T15:02:22.212Z,24.03
2019-02-06T15:05:19.120Z,26.57
2019-02-06T15:08:29.272Z,27.93
2019-02-06T15:11:44.400Z,32.37
2019-02-06T15:14:46.025Z,26.77
2019-02-06T15:17:52.240Z,24.00
2019-02-06T15:20:46.113Z,24.97
2019-02-06T15:23:52.248Z,23.63
2019-02-06T15:26:49.536Z,23.43
2019-02-06T15:29:45.849Z,28.87
2019-02-06T15:32:36.628Z,22.17
2019-02-06T15:35:42.752Z,22.90
2019-02-06T15:38:58.428Z,24.47
2019-02-06T15:42:20.628Z,24.63
2019-02-06T15:45:16.619Z,27.60
2019-02-06T15:48:10.863Z,22.67
2019-02-06T15:51:20.084Z,21.87
2019-02-06T15:54:38.587Z,24.10
2019-02-06T15:57:46.980Z,21.83
2019-02-06T16:00:53.200Z,20.33
2019-02-06T16:04:12.749Z,24.67
2019-02-06T16:07:32.489Z,25.30
2019-02-06T16:10:28.666Z,21.73
2019-02-06T16:13:25.504Z,22.23
2019-02-06T16:16:40.981Z,23.60
2019-02-06T16:19:37.809Z,24.70
2019-02-06T16:22:43.710Z,23.97
2019-02-06T16:26:09.924Z,25.10
2019-02-06T16:29:09.719Z,22.97
2019-02-06T16:32:12.882Z,26.63
2019-02-06T16:35:19.099Z,22.33
2019-02-06T16:38:19.353Z,23.93
2019-02-06T16:41:22.244Z,25.87
2019-02-06T16:44:28.466Z,28.00
2019-02-06T16:47:50.100Z,23.80
2019-02-06T16:50:47.270Z,28.23
2019-02-06T16:54:08.143Z,25.93
2019-02-06T16:57:05.523Z,28.53
2019-02-06T17:00:21.096Z,25.87
2019-02-06T17:03:30.891Z,28.67
2019-02-06T17:06:27.891Z,31.57
2019-02-06T17:09:25.620Z,31.67
2019-02-06T17:12:31.520Z,29.10
2019-02-06T17:15:25.698Z,31.50
2019-02-06T17:18:22.752Z,30.07
2019-02-06T17:21:22.305Z,31.93
2019-02-06T17:24:45.536Z,29.03
2019-02-06T17:27:51.470Z,36.50
2019-02-06T17:30:56.644Z,30.53
2019-02-06T17:34:05.436Z,31.50
2019-02-06T17:37:12.642Z,37.13
2019-02-06T17:40:18.463Z,33.03
2019-02-06T17:43:18.700Z,36.43
2019-02-06T17:46:18.796Z,37.87
2019-02-06T17:49:15.124Z,35.03
2019-02-06T17:52:15.311Z,33.87
2019-02-06T17:55:18.170Z,36.37
2019-02-06T17:58:07.537Z,36.47
2019-02-06T18:01:00.381Z,35.97
2019-02-06T18:03:49.789Z,35.40
2019-02-06T18:06:37.625Z,34.80
2019-02-06T18:09:25.832Z,37.40
2019-02-06T18:12:13.976Z,37.87
2019-02-06T18:15:02.044Z,36.30
2019-02-06T18:17:49.937Z,37.60
2019-02-06T18:20:37.499Z,39.67
2019-02-06T18:23:27.214Z,38.53
2019-02-06T18:26:17.013Z,44.00
2019-02-06T18:29:05.729Z,33.43
2019-02-06T18:31:53.716Z,35.90
2019-02-06T18:34:41.340Z,40.47
2019-02-06T18:37:29.159Z,36.40
2019-02-06T18:40:18.508Z,33.77
2019-02-06T18:43:07.028Z,38.53
2019-02-06T18:45:54.824Z,41.20
2019-02-06T18:48:42.757Z,44.90
2019-02-06T18:51:30.757Z,42.63
2019-02-06T18:54:18.982Z,43.83
2019-02-06T18:57:07.199Z,55.17
2019-02-06T18:59:54.896Z,51.30
2019-02-06T19:02:42.784Z,54.83
2019-02-06T19:05:56.330Z,55.70
2019-02-06T19:08:44.322Z,50.70
2019-02-06T19:11:32.227Z,51.80
2019-02-06T19:14:19.905Z,46.63
2019-02-06T19:17:08.124Z,47.70
2019-02-06T19:19:55.647Z,41.17
2019-02-06T19:22:44.228Z,46.37
2019-02-06T19:25:32.135Z,43.33
2019-02-06T19:28:19.963Z,46.50
2019-02-06T19:31:07.990Z,48.20
2019-02-06T19:33:56.096Z,44.27
2019-02-06T19:36:44.406Z,43.13
2019-02-06T19:39:32.412Z,44.77
2019-02-06T19:42:20.674Z,41.97
2019-02-06T19:45:11.646Z,42.77
2019-02-06T19:47:59.476Z,45.67
2019-02-06T19:50:47.837Z,42.80
2019-02-06T19:53:35.477Z,46.00
2019-02-06T19:56:23.764Z,48.13
2019-02-06T19:59:12.792Z,46.10
2019-02-06T20:02:01.813Z,47.23
2019-02-06T20:04:49.351Z,53.87
2019-02-06T20:07:37.631Z,47.10
2019-02-06T20:10:28.678Z,48.63
2019-02-06T20:13:16.525Z,52.87
2019-02-06T20:16:04.842Z,45.37
2019-02-06T20:18:52.844Z,49.63
2019-02-06T20:21:40.879Z,51.77
2019-02-06T20:24:28.857Z,46.70
2019-02-06T20:27:16.831Z,52.30
2019-02-06T20:30:08.199Z,53.13
2019-02-06T20:32:56.500Z,47.10
2019-02-06T20:35:44.662Z,50.57
2019-02-06T20:38:32.563Z,45.13
2019-02-06T20:41:20.649Z,50.23
2019-02-06T20:44:08.512Z,48.60
2019-02-06T20:46:56.146Z,50.47
2019-02-06T20:49:44.249Z,48.37
2019-02-06T20:52:31.992Z,59.60
2019-02-06T20:55:20.437Z,53.77
2019-02-06T20:58:08.384Z,57.97
2019-02-06T21:00:55.953Z,54.33
2019-02-06T21:03:44.232Z,52.03
2019-02-06T21:06:32.168Z,51.83
2019-02-06T21:09:20.240Z,54.80
2019-02-06T21:12:07.821Z,55.67
2019-02-06T21:14:55.593Z,49.73
2019-02-06T21:17:43.552Z,50.40
2019-02-06T21:20:31.163Z,50.60
2019-02-06T21:23:19.200Z,46.47
2019-02-06T21:26:07.145Z,48.90
2019-02-06T21:28:54.775Z,49.17
2019-02-06T21:31:42.581Z,53.13
2019-02-06T21:34:30.506Z,48.20
2019-02-06T21:37:18.692Z,51.87
2019-02-06T21:40:11.856Z,49.60
2019-02-06T21:42:59.453Z,55.70
2019-02-06T21:45:47.312Z,55.07
2019-02-06T21:48:35.245Z,53.53
2019-02-06T21:51:23.013Z,49.77
2019-02-06T21:54:10.873Z,53.17
2019-02-06T21:56:58.896Z,50.83
2019-02-06T21:59:46.772Z,54.73
2019-02-06T22:02:34.841Z,53.10
2019-02-06T22:05:22.716Z,53.30
2019-02-06T22:08:11.202Z,53.93
2019-02-06T22:10:59.269Z,51.43
2019-02-06T22:13:54.989Z,56.77
2019-02-06T22:16:36.843Z,48.63
2019-02-06T22:19:24.512Z,52.37
2019-02-06T22:22:12.392Z,49.00
2019-02-06T22:25:00.304Z,44.57
2019-02-06T22:27:50.542Z,51.37
2019-02-06T22:30:37.534Z,55.03
2019-02-06T22:33:25.669Z,54.07
2019-02-06T22:36:13.664Z,55.43
2019-02-06T22:39:01.470Z,82.20
2019-02-06T22:41:49.301Z,95.53
2019-02-06T22:44:37.253Z,70.43
2019-02-06T22:47:25.285Z,71.23
2019-02-06T22:50:16.250Z,69.90
2019-02-06T22:53:04.331Z,72.87
2019-02-06T22:55:51.817Z,71.13
2019-02-06T22:58:39.732Z,67.37
2019-02-06T23:01:31.116Z,67.17
2019-02-06T23:04:19.236Z,67.87
2019-02-06T23:07:07.338Z,63.43
2019-02-06T23:09:55.198Z,58.43
2019-02-06T23:12:42.851Z,58.60
2019-02-06T23:15:31.136Z,53.43
2019-02-06T23:18:18.684Z,59.10
2019-02-06T23:21:06.584Z,51.87
2019-02-06T23:23:54.660Z,54.20
2019-02-06T23:26:42.704Z,48.40
2019-02-06T23:29:30.565Z,60.80
2019-02-06T23:32:18.155Z,54.40
2019-02-06T23:35:06.406Z,55.93
2019-02-06T23:37:54.429Z,54.27
2019-02-06T23:40:42.047Z,53.33
2019-02-06T23:43:29.981Z,51.13
2019-02-06T23:46:17.751Z,52.70
2019-02-06T23:49:05.782Z,53.37
2019-02-06T23:51:53.612Z,45.13
2019-02-06T23:54:41.504Z,46.47
2019-02-06T23:57:29.236Z,49.57
